Time;durP1;ratioP1;P1;durP2;ratioP2;P2;SDS_P1;SDS_P2;PMS_P1;PMS_P2;Temp;Humidity;BMP_temperature;BMP_pressure;BME280_temperature;BME280_humidity;BME280_pressure;Samples;Min_cycle;Max_cycle;Signal;HPM_P1;HPM_P2
2022/04/02 00:01:48;;;;;;;28.73;15.40;;;1.60;99.90;;;;;;5002510;28;20042;-66
2022/04/02 00:04:16;;;;;;;31.00;16.95;;;1.70;99.90;;;;;;4977317;28;20596;-68
2022/04/02 00:06:43;;;;;;;28.10;15.52;;;1.60;99.90;;;;;;5002736;28;20052;-66
2022/04/02 00:09:11;;;;;;;23.10;12.43;;;1.70;99.90;;;;;;4994546;28;20054;-67
2022/04/02 00:11:38;;;;;;;17.85;10.57;;;1.60;99.90;;;;;;4991510;28;20493;-68
2022/04/02 00:14:06;;;;;;;20.08;10.55;;;1.70;99.90;;;;;;5006239;28;20042;-67
2022/04/02 00:16:34;;;;;;;21.35;9.45;;;1.70;99.90;;;;;;4997891;28;20444;-67
2022/04/02 00:19:02;;;;;;;23.63;10.80;;;1.70;99.90;;;;;;4997484;28;20129;-67
2022/04/02 00:21:29;;;;;;;18.63;8.98;;;1.70;99.90;;;;;;5005277;28;20065;-67
2022/04/02 00:23:57;;;;;;;16.40;8.52;;;1.70;99.90;;;;;;4998037;28;20045;-67
2022/04/02 00:26:24;;;;;;;14.90;7.30;;;1.60;99.90;;;;;;5001321;28;20153;-67
2022/04/02 00:28:51;;;;;;;18.45;7.80;;;1.60;99.90;;;;;;4999070;28;20491;-66
2022/04/02 00:31:21;;;;;;;27.42;6.88;;;1.60;99.90;;;;;;4994886;28;20050;-67
2022/04/02 00:33:50;;;;;;;17.75;7.25;;;1.60;99.90;;;;;;5001913;28;20497;-67
2022/04/02 00:36:20;;;;;;;14.73;6.45;;;1.50;99.90;;;;;;4996153;28;20069;-67
2022/04/02 00:38:47;;;;;;;15.25;7.20;;;1.50;99.90;;;;;;4992935;28;20042;-67
2022/04/02 00:41:15;;;;;;;21.33;8.02;;;1.50;99.90;;;;;;4997103;28;20149;-67
2022/04/02 00:43:55;;;;;;;15.43;7.80;;;1.40;99.90;;;;;;4996088;28;20125;-66
2022/04/02 00:46:23;;;;;;;13.98;6.32;;;1.40;99.90;;;;;;4998877;28;20084;-67
2022/04/02 00:48:51;;;;;;;18.60;7.55;;;1.40;99.90;;;;;;4997270;28;20507;-66
2022/04/02 00:51:19;;;;;;;15.02;8.00;;;1.40;99.90;;;;;;4997283;28;20057;-66
2022/04/02 00:53:51;;;;;;;19.48;7.68;;;1.40;99.90;;;;;;4997062;28;20524;-67
2022/04/02 00:56:20;;;;;;;15.68;8.60;;;1.40;99.90;;;;;;5004656;28;20045;-65
2022/04/02 00:58:48;;;;;;;20.02;10.07;;;1.40;99.90;;;;;;5007350;28;20056;-66
2022/04/02 01:01:16;;;;;;;26.08;12.18;;;1.40;99.90;;;;;;4991530;28;20045;-68
2022/04/02 01:03:48;;;;;;;21.60;10.38;;;1.40;99.90;;;;;;5003603;28;20046;-67
2022/04/02 01:06:21;;;;;;;17.35;8.82;;;1.40;99.90;;;;;;5003223;28;20046;-66
2022/04/02 01:08:50;;;;;;;20.05;8.80;;;1.30;99.90;;;;;;4989296;28;20058;-66
2022/04/02 01:11:18;;;;;;;15.85;9.25;;;1.30;99.90;;;;;;4994973;28;20428;-67
2022/04/02 01:13:51;;;;;;;22.33;10.45;;;1.30;99.90;;;;;;5000299;28;20046;-67
2022/04/02 01:16:20;;;;;;;20.65;10.55;;;1.30;99.90;;;;;;5013298;28;20187;-66
2022/04/02 01:18:53;;;;;;;22.83;10.85;;;1.40;99.90;;;;;;5012103;28;20485;-67
2022/04/02 01:21:26;;;;;;;21.95;10.40;;;1.30;99.90;;;;;;4992369;28;20467;-67
2022/04/02 01:23:58;;;;;;;21.77;11.95;;;1.30;99.90;;;;;;4993474;28;20588;-66
2022/04/02 01:26:26;;;;;;;20.30;10.70;;;1.30;99.90;;;;;;5011280;28;20046;-66
2022/04/02 01:29:02;;;;;;;20.88;11.73;;;1.30;99.90;;;;;;4998985;28;20541;-66
2022/04/02 01:31:43;;;;;;;23.42;11.98;;;1.30;99.90;;;;;;4995092;28;20101;-67
2022/04/02 01:34:12;;;;;;;21.92;10.93;;;1.30;99.90;;;;;;4992854;28;20038;-66
2022/04/02 01:36:41;;;;;;;18.52;10.13;;;1.40;99.90;;;;;;5007033;28;20404;-67
2022/04/02 01:39:19;;;;;;;19.50;11.43;;;1.30;99.90;;;;;;5004468;28;20469;-66
2022/04/02 01:41:47;;;;;;;20.85;11.15;;;1.30;99.90;;;;;;5004914;28;20045;-67
2022/04/02 01:44:18;;;;;;;18.77;10.85;;;1.30;99.90;;;;;;4991754;28;20416;-66
2022/04/02 01:46:46;;;;;;;20.13;10.05;;;1.30;99.90;;;;;;4990796;28;20050;-66
2022/04/02 01:49:13;;;;;;;24.52;10.63;;;1.40;99.90;;;;;;4993072;28;20081;-66
2022/04/02 01:51:44;;;;;;;23.67;10.30;;;1.30;99.90;;;;;;4992217;28;20483;-66
2022/04/02 01:54:17;;;;;;;18.88;9.65;;;1.20;99.90;;;;;;4993952;28;20050;-67
2022/04/02 01:56:45;;;;;;;19.02;9.70;;;1.20;99.90;;;;;;4993252;28;20398;-67
2022/04/02 01:59:14;;;;;;;22.45;9.05;;;1.20;99.90;;;;;;5000419;28;20034;-67
2022/04/02 02:01:42;;;;;;;19.10;8.05;;;1.20;99.90;;;;;;4993466;28;20066;-67
2022/04/02 02:04:11;;;;;;;22.25;8.32;;;1.10;99.90;;;;;;4992534;28;20133;-67
2022/04/02 02:06:39;;;;;;;19.92;8.43;;;1.20;99.90;;;;;;5012377;28;20050;-67
2022/04/02 02:09:12;;;;;;;22.02;8.57;;;1.20;99.90;;;;;;5009711;28;20057;-67
2022/04/02 02:12:08;;;;;;;15.63;7.68;;;1.10;99.90;;;;;;5019853;28;20493;-67
2022/04/02 02:14:55;;;;;;;18.40;7.50;;;1.10;99.90;;;;;;5011767;28;20649;-67
2022/04/02 02:17:23;;;;;;;14.80;7.10;;;1.20;99.90;;;;;;4991402;28;20419;-66
2022/04/02 02:19:58;;;;;;;17.35;6.70;;;1.20;99.90;;;;;;4995550;28;20124;-67
2022/04/02 02:22:25;;;;;;;11.93;6.55;;;1.10;99.90;;;;;;4992572;28;20070;-67
2022/04/02 02:24:52;;;;;;;20.67;7.15;;;1.10;99.90;;;;;;4993564;28;20062;-68
2022/04/02 02:27:20;;;;;;;15.65;6.90;;;1.10;99.90;;;;;;4991144;28;20419;-67
2022/04/02 02:29:47;;;;;;;28.17;8.15;;;1.20;99.90;;;;;;4990951;28;20509;-67
2022/04/02 02:32:19;;;;;;;17.95;7.65;;;1.20;99.90;;;;;;4992193;28;20049;-67
2022/04/02 02:37:33;;;;;;;14.15;7.05;;;1.10;99.90;;;;;;4991402;28;20134;-67
2022/04/02 02:40:08;;;;;;;20.17;7.82;;;1.10;99.90;;;;;;4991870;28;20046;-67
2022/04/02 02:42:36;;;;;;;15.60;7.70;;;1.10;99.90;;;;;;4994326;28;20481;-67
2022/04/02 02:45:36;;;;;;;15.40;7.10;;;1.00;99.90;;;;;;4999897;28;20064;-66
2022/04/02 02:48:04;;;;;;;14.75;7.30;;;1.00;99.90;;;;;;5001701;28;20041;-66
2022/04/02 02:50:48;;;;;;;14.52;6.65;;;1.00;99.90;;;;;;4996845;28;20057;-66
2022/04/02 02:53:17;;;;;;;16.10;6.28;;;1.00;99.90;;;;;;5005822;28;20072;-67
2022/04/02 02:55:48;;;;;;;19.23;6.65;;;1.00;99.90;;;;;;4976117;28;20124;-67
2022/04/02 02:58:16;;;;;;;15.98;6.47;;;1.00;99.90;;;;;;4993661;28;20053;-67
2022/04/02 03:00:46;;;;;;;17.27;6.68;;;1.00;99.90;;;;;;4991797;28;20049;-66
2022/04/02 03:03:22;;;;;;;14.43;6.82;;;0.90;99.90;;;;;;5010794;28;20072;-67
2022/04/02 03:05:51;;;;;;;15.93;6.28;;;0.90;99.90;;;;;;4990365;28;20049;-66
2022/04/02 03:08:20;;;;;;;16.10;6.60;;;0.90;99.90;;;;;;4991604;28;20046;-67
2022/04/02 03:10:54;;;;;;;15.40;6.35;;;1.00;99.90;;;;;;4989756;28;20046;-67
2022/04/02 03:13:27;;;;;;;13.82;5.95;;;1.00;99.90;;;;;;4991380;28;20046;-67
2022/04/02 03:16:04;;;;;;;14.95;8.30;;;1.00;99.90;;;;;;4998683;28;20414;-67
2022/04/02 03:18:32;;;;;;;19.60;7.22;;;1.00;99.90;;;;;;4991268;28;20104;-67
2022/04/02 03:21:05;;;;;;;13.77;8.00;;;0.90;99.90;;;;;;4990116;28;20532;-67
2022/04/02 03:23:32;;;;;;;16.63;8.57;;;0.90;99.90;;;;;;4993719;28;20052;-67
2022/04/02 03:26:01;;;;;;;17.25;7.47;;;1.00;99.90;;;;;;4995555;28;20040;-68
2022/04/02 03:28:35;;;;;;;13.57;6.85;;;1.00;99.90;;;;;;4992881;28;20490;-66
2022/04/02 03:31:03;;;;;;;14.38;8.02;;;1.00;99.90;;;;;;4994282;28;20074;-68
2022/04/02 03:33:32;;;;;;;12.18;6.68;;;1.00;99.90;;;;;;4990936;28;20069;-68
2022/04/02 03:36:03;;;;;;;17.23;7.28;;;1.00;99.90;;;;;;4994639;28;20073;-68
2022/04/02 03:38:31;;;;;;;16.00;7.70;;;1.00;99.90;;;;;;4988749;28;20042;-68
2022/04/02 03:41:06;;;;;;;15.77;7.10;;;1.00;99.90;;;;;;4989705;28;20042;-67
2022/04/02 03:43:35;;;;;;;15.00;6.97;;;1.10;99.90;;;;;;4989997;28;20121;-67
2022/04/02 03:48:49;;;;;;;19.38;6.43;;;1.10;99.90;;;;;;4994408;28;20125;-68
2022/04/02 03:51:17;;;;;;;16.23;6.88;;;1.00;99.90;;;;;;4990249;28;20537;-68
2022/04/02 03:53:47;;;;;;;11.77;5.05;;;1.00;99.90;;;;;;4991102;28;20061;-67
2022/04/02 03:56:16;;;;;;;13.65;6.03;;;1.00;99.90;;;;;;4995671;28;20399;-67
2022/04/02 03:58:51;;;;;;;9.55;5.45;;;1.00;99.90;;;;;;5002026;28;20038;-68
2022/04/02 04:01:19;;;;;;;11.20;6.22;;;0.90;99.90;;;;;;4998184;28;20088;-68
2022/04/02 04:03:47;;;;;;;11.80;6.45;;;0.90;99.90;;;;;;4991066;28;20045;-68
2022/04/02 04:06:15;;;;;;;15.65;6.82;;;0.80;99.90;;;;;;4994559;28;20513;-67
2022/04/02 04:08:42;;;;;;;16.42;6.63;;;0.70;99.90;;;;;;4999062;28;20056;-68
2022/04/02 04:11:14;;;;;;;16.33;7.00;;;0.70;99.90;;;;;;4977356;28;20585;-67
2022/04/02 04:13:43;;;;;;;17.58;6.90;;;0.80;99.90;;;;;;4985422;28;20064;-65
2022/04/02 04:16:11;;;;;;;13.18;6.57;;;0.80;99.90;;;;;;5001668;28;20124;-68
2022/04/02 04:18:40;;;;;;;15.43;7.15;;;0.80;99.90;;;;;;4989598;28;20454;-68
2022/04/02 04:21:08;;;;;;;16.67;8.05;;;0.80;99.90;;;;;;4989847;28;20124;-68
2022/04/02 04:23:35;;;;;;;14.18;7.68;;;0.80;99.90;;;;;;4990172;28;20034;-67
2022/04/02 04:26:05;;;;;;;13.38;6.95;;;0.90;99.90;;;;;;4991156;28;20113;-67
2022/04/02 04:28:40;;;;;;;11.73;7.00;;;0.80;99.90;;;;;;5007894;28;20049;-68
2022/04/02 04:31:09;;;;;;;15.93;7.95;;;0.80;99.90;;;;;;4979022;28;20137;-67
2022/04/02 04:33:38;;;;;;;16.83;8.40;;;0.80;99.90;;;;;;4973753;28;20438;-67
2022/04/02 04:36:05;;;;;;;15.73;8.05;;;0.80;99.90;;;;;;4991583;28;20081;-67
2022/04/02 04:38:33;;;;;;;13.57;7.20;;;0.80;99.90;;;;;;4991276;28;20588;-68
2022/04/02 04:41:05;;;;;;;15.95;7.40;;;0.80;99.90;;;;;;4992599;28;20049;-66
2022/04/02 04:43:34;;;;;;;17.52;8.88;;;0.80;99.90;;;;;;4993212;28;20050;-67
2022/04/02 04:46:05;;;;;;;14.50;7.78;;;0.80;99.90;;;;;;4981090;28;20108;-67
2022/04/02 04:48:32;;;;;;;14.45;7.97;;;0.80;99.90;;;;;;4988193;28;20046;-67
2022/04/02 04:51:00;;;;;;;15.18;8.30;;;0.80;99.90;;;;;;4982355;28;20576;-67
2022/04/02 04:53:30;;;;;;;13.57;7.40;;;0.80;99.90;;;;;;4980034;28;20042;-67
2022/04/02 04:55:58;;;;;;;16.05;8.50;;;0.80;99.90;;;;;;4991284;28;20437;-68
2022/04/02 04:58:27;;;;;;;18.17;7.95;;;0.80;99.90;;;;;;4991608;28;20113;-67
2022/04/02 05:00:59;;;;;;;12.45;7.28;;;0.80;99.90;;;;;;4960084;28;20058;-68
2022/04/02 05:03:32;;;;;;;16.48;7.63;;;0.80;99.90;;;;;;5001500;28;20065;-68
2022/04/02 05:06:03;;;;;;;14.95;8.02;;;0.80;99.90;;;;;;4989094;28;20038;-68
2022/04/02 05:08:32;;;;;;;13.20;7.40;;;0.70;99.90;;;;;;4980204;28;20046;-66
2022/04/02 05:11:01;;;;;;;15.48;7.40;;;0.80;99.90;;;;;;4996482;28;20046;-67
2022/04/02 05:13:38;;;;;;;12.30;7.38;;;0.80;99.90;;;;;;4988722;28;20042;-67
2022/04/02 05:16:06;;;;;;;12.43;7.47;;;0.90;99.90;;;;;;4982250;28;20108;-68
2022/04/02 05:18:33;;;;;;;13.20;7.28;;;0.90;99.90;;;;;;4991018;28;20527;-68
2022/04/02 05:21:02;;;;;;;14.80;7.70;;;0.80;99.90;;;;;;4988636;28;20042;-68
2022/04/02 05:23:31;;;;;;;15.45;7.10;;;0.90;99.90;;;;;;4990384;28;20121;-68
2022/04/02 05:25:59;;;;;;;15.38;7.18;;;0.90;99.90;;;;;;4988971;28;20050;-67
2022/04/02 05:28:30;;;;;;;12.77;6.63;;;0.90;99.90;;;;;;4990774;28;20144;-66
2022/04/02 05:30:59;;;;;;;11.30;6.63;;;0.80;99.90;;;;;;4997357;28;20363;-68
2022/04/02 05:33:30;;;;;;;12.20;7.20;;;0.80;99.90;;;;;;4987722;28;20343;-67
2022/04/02 05:36:08;;;;;;;16.42;7.43;;;0.90;99.90;;;;;;4976086;28;20069;-66
2022/04/02 05:38:35;;;;;;;11.13;6.35;;;0.90;99.90;;;;;;4989802;28;20042;-68
2022/04/02 05:41:03;;;;;;;13.18;7.40;;;0.90;99.90;;;;;;4989852;28;20117;-67
2022/04/02 05:43:31;;;;;;;13.35;7.07;;;0.90;99.90;;;;;;4990394;28;20039;-68
2022/04/02 05:45:58;;;;;;;11.77;6.28;;;0.80;99.90;;;;;;4989971;28;20054;-68
2022/04/02 05:48:28;;;;;;;11.40;6.63;;;0.90;99.90;;;;;;4991302;28;20038;-67
2022/04/02 05:50:56;;;;;;;12.40;6.85;;;1.00;99.90;;;;;;4980497;28;21170;-67
2022/04/02 05:53:23;;;;;;;17.45;7.35;;;0.90;99.90;;;;;;4989837;28;20133;-67
2022/04/02 05:55:50;;;;;;;9.70;6.80;;;0.90;99.90;;;;;;4990196;28;20220;-67
2022/04/02 05:58:18;;;;;;;12.52;6.85;;;0.90;99.90;;;;;;4995647;28;20058;-68
2022/04/02 06:00:45;;;;;;;14.15;7.47;;;0.90;99.90;;;;;;4992021;28;20105;-68
2022/04/02 06:03:15;;;;;;;13.93;7.18;;;0.90;99.90;;;;;;4994095;28;20599;-68
2022/04/02 06:05:43;;;;;;;15.25;6.70;;;0.90;99.90;;;;;;4998274;28;20922;-68
2022/04/02 06:08:11;;;;;;;12.95;7.55;;;0.90;99.90;;;;;;5009734;28;20515;-67
2022/04/02 06:10:38;;;;;;;12.43;6.65;;;1.00;99.90;;;;;;5009906;28;20584;-67
2022/04/02 06:13:07;;;;;;;13.15;6.30;;;1.10;99.90;;;;;;5001258;28;20042;-68
2022/04/02 06:15:34;;;;;;;15.43;7.30;;;1.10;99.90;;;;;;5014808;28;20584;-68
2022/04/02 06:18:02;;;;;;;14.52;6.80;;;1.10;99.90;;;;;;5008920;28;20525;-68
2022/04/02 06:20:30;;;;;;;14.27;7.35;;;1.10;99.90;;;;;;4997700;28;20049;-68
2022/04/02 06:22:57;;;;;;;16.35;7.63;;;1.10;99.90;;;;;;5007945;28;20038;-67
2022/04/02 06:25:25;;;;;;;14.32;7.43;;;1.20;99.90;;;;;;4993446;28;20533;-67
2022/04/02 06:27:54;;;;;;;12.98;6.63;;;1.30;99.90;;;;;;4994380;28;20133;-68
2022/04/02 06:30:21;;;;;;;12.82;6.97;;;1.30;99.90;;;;;;4996715;28;20053;-67
2022/04/02 06:32:56;;;;;;;;;;;1.40;99.90;;;;;;4987924;28;20541;-67
2022/04/02 06:35:25;;;;;;;14.75;6.45;;;1.50;99.90;;;;;;4991552;28;19932;-69
2022/04/02 06:37:54;;;;;;;15.18;5.93;;;1.40;99.90;;;;;;4993513;28;20057;-68
2022/04/02 06:40:23;;;;;;;13.15;6.45;;;1.40;99.90;;;;;;4982200;28;20089;-68
2022/04/02 06:42:51;;;;;;;12.82;6.82;;;1.40;99.90;;;;;;5002985;28;20069;-68
2022/04/02 06:45:33;;;;;;;13.43;7.25;;;1.50;99.90;;;;;;5001918;28;20045;-67
2022/04/02 06:48:00;;;;;;;13.27;6.68;;;1.50;99.90;;;;;;4995849;28;20398;-68
2022/04/02 06:50:28;;;;;;;14.07;6.20;;;1.50;99.90;;;;;;5003085;28;20570;-68
2022/04/02 06:52:56;;;;;;;12.75;7.05;;;1.50;99.90;;;;;;5004441;28;20046;-68
2022/04/02 06:55:23;;;;;;;12.80;7.60;;;1.50;99.90;;;;;;5006930;28;20050;-68
2022/04/02 06:57:55;;;;;;;16.13;6.07;;;1.60;99.90;;;;;;5004966;28;20068;-68
2022/04/02 07:00:23;;;;;;;;;;;1.60;99.90;;;;;;5000640;28;20514;-68
2022/04/02 07:02:51;;;;;;;12.88;7.03;;;1.60;99.90;;;;;;4992938;28;19980;-67
2022/04/02 07:05:18;;;;;;;12.27;5.40;;;1.70;99.90;;;;;;4983204;28;20042;-68
2022/04/02 07:07:47;;;;;;;12.05;6.63;;;1.80;99.90;;;;;;4999026;28;20125;-68
2022/04/02 07:10:14;;;;;;;9.20;5.60;;;1.80;99.90;;;;;;4978040;28;20081;-67
2022/04/02 07:12:41;;;;;;;10.18;5.10;;;1.80;99.90;;;;;;5006462;28;20493;-68
2022/04/02 07:15:10;;;;;;;11.65;5.47;;;1.70;99.90;;;;;;5007330;28;20393;-67
2022/04/02 07:17:37;;;;;;;12.95;6.20;;;1.80;99.90;;;;;;4995577;28;20042;-67
2022/04/02 07:20:06;;;;;;;12.95;5.70;;;1.90;99.90;;;;;;4987088;28;20050;-67
2022/04/02 07:22:35;;;;;;;9.63;6.22;;;1.90;99.90;;;;;;5007452;28;20071;-67
2022/04/02 07:25:04;;;;;;;11.13;6.07;;;2.00;99.90;;;;;;4994548;28;20085;-67
2022/04/02 07:27:31;;;;;;;11.30;6.03;;;2.00;99.90;;;;;;4984699;28;20074;-69
2022/04/02 07:30:03;;;;;;;13.07;5.53;;;2.20;99.90;;;;;;4977225;28;20078;-68
2022/04/02 07:32:30;;;;;;;11.23;5.57;;;2.30;99.90;;;;;;4986765;28;20340;-68
2022/04/02 07:34:58;;;;;;;13.13;6.22;;;2.20;99.90;;;;;;4994511;28;20544;-67
2022/04/02 07:37:52;;;;;;;10.50;6.03;;;2.30;99.90;;;;;;4997521;28;20050;-68
2022/04/02 07:40:25;;;;;;;14.43;5.97;;;2.40;99.90;;;;;;4993366;28;20081;-67
2022/04/02 07:43:14;;;;;;;12.73;5.45;;;2.30;99.90;;;;;;4974076;28;20404;-68
2022/04/02 07:45:45;;;;;;;13.55;6.18;;;2.30;99.90;;;;;;4982510;28;20046;-67
2022/04/02 07:48:16;;;;;;;;;;;2.30;99.90;;;;;;4966671;28;20371;-66
2022/04/02 07:50:46;;;;;;;12.43;6.38;;;2.30;99.90;;;;;;5006784;28;20031;-67
2022/04/02 07:53:22;;;;;;;9.90;5.28;;;2.50;99.90;;;;;;4996299;28;20065;-67
2022/04/02 07:55:56;;;;;;;10.77;5.07;;;2.60;99.90;;;;;;4993663;28;20394;-68
2022/04/02 07:58:31;;;;;;;10.93;5.50;;;2.60;99.90;;;;;;4997925;28;20050;-68
2022/04/02 08:01:04;;;;;;;11.30;5.97;;;2.60;99.90;;;;;;4996325;28;20069;-68
2022/04/02 08:03:37;;;;;;;13.70;7.20;;;2.60;99.90;;;;;;5000732;28;20074;-67
2022/04/02 08:06:06;;;;;;;9.20;5.35;;;2.70;99.90;;;;;;5009352;28;20129;-67
2022/04/02 08:08:34;;;;;;;11.23;6.00;;;2.80;99.90;;;;;;4978424;28;20054;-69
2022/04/02 08:11:02;;;;;;;13.13;6.13;;;2.90;99.90;;;;;;4996346;28;20054;-68
2022/04/02 08:13:32;;;;;;;15.25;5.95;;;3.10;99.90;;;;;;4964181;28;20046;-67
2022/04/02 08:16:00;;;;;;;10.48;5.30;;;3.30;99.90;;;;;;4997103;28;20080;-68
2022/04/02 08:18:27;;;;;;;9.95;5.32;;;3.40;99.90;;;;;;4993990;28;20057;-68
2022/04/02 08:20:55;;;;;;;11.05;5.57;;;3.50;99.90;;;;;;4992656;28;20138;-66
2022/04/02 08:23:29;;;;;;;13.20;5.50;;;3.30;99.90;;;;;;4997929;28;20045;-67
2022/04/02 08:26:12;;;;;;;12.23;5.43;;;3.20;99.90;;;;;;4995058;28;20043;-67
2022/04/02 08:29:14;;;;;;;14.27;6.43;;;3.30;99.90;;;;;;4992956;28;20561;-67
2022/04/02 08:31:44;;;;;;;9.73;6.20;;;3.60;99.90;;;;;;4990261;28;20064;-68
2022/04/02 08:34:15;;;;;;;9.60;5.73;;;3.50;99.90;;;;;;4998816;28;20054;-68
2022/04/02 08:36:52;;;;;;;12.70;6.35;;;3.60;99.90;;;;;;4991958;28;20423;-67
2022/04/02 08:39:36;;;;;;;11.10;5.78;;;3.60;99.90;;;;;;4992276;28;20116;-67
2022/04/02 08:42:09;;;;;;;12.57;5.20;;;3.60;99.90;;;;;;4992252;28;20101;-67
2022/04/02 08:44:39;;;;;;;9.32;5.18;;;3.60;99.90;;;;;;4989646;28;20073;-67
2022/04/02 08:47:14;;;;;;;9.57;5.30;;;3.40;99.90;;;;;;4985016;28;20050;-67
2022/04/02 08:49:49;;;;;;;9.63;5.43;;;3.40;99.90;;;;;;4972510;28;20130;-68
2022/04/02 08:52:22;;;;;;;10.38;5.85;;;3.40;99.90;;;;;;5002058;28;20077;-68
2022/04/02 08:55:17;;;;;;;12.65;5.38;;;3.60;99.90;;;;;;4996654;28;20543;-69
2022/04/02 08:57:54;;;;;;;9.77;5.35;;;3.70;99.90;;;;;;4994125;28;20078;-67
2022/04/02 09:00:24;;;;;;;11.68;5.57;;;3.80;99.90;;;;;;4983898;28;20065;-67
2022/04/02 09:03:08;;;;;;;10.13;5.25;;;4.00;99.90;;;;;;4992145;28;20043;-68
2022/04/02 09:05:54;;;;;;;9.65;5.63;;;4.10;99.90;;;;;;4992638;28;20046;-68
2022/04/02 09:08:30;;;;;;;8.52;4.97;;;4.20;99.90;;;;;;4982781;28;20093;-67
2022/04/02 09:11:49;;;;;;;12.95;6.35;;;4.10;99.90;;;;;;4983808;28;20160;-67
2022/04/02 09:14:53;;;;;;;16.05;6.50;;;4.10;99.90;;;;;;5000287;28;20050;-69
2022/04/02 09:17:42;;;;;;;9.75;6.15;;;4.10;99.90;;;;;;5000329;28;20480;-69
2022/04/02 09:20:42;;;;;;;14.65;6.15;;;4.30;99.90;;;;;;4992641;28;20058;-68
2022/04/02 09:23:12;;;;;;;9.65;5.75;;;4.10;99.90;;;;;;5026696;28;20076;-68
2022/04/02 09:26:08;;;;;;;11.35;5.95;;;4.30;99.90;;;;;;5007231;28;20061;-67
2022/04/02 09:28:42;;;;;;;9.65;5.70;;;4.40;99.90;;;;;;4992730;28;20584;-67
2022/04/02 09:31:34;;;;;;;9.65;6.38;;;4.60;99.90;;;;;;4985958;28;20084;-67
2022/04/02 09:34:28;;;;;;;10.73;6.32;;;4.60;99.90;;;;;;5024798;28;20049;-68
2022/04/02 09:37:03;;;;;;;10.38;6.60;;;4.50;99.90;;;;;;5030488;28;20037;-68
2022/04/02 09:39:49;;;;;;;16.17;8.95;;;4.30;99.90;;;;;;5015641;28;20056;-68
2022/04/02 09:42:24;;;;;;;12.77;6.70;;;4.40;99.90;;;;;;5012186;28;20117;-69
2022/04/02 09:45:14;;;;;;;10.02;6.10;;;4.30;99.90;;;;;;4999072;28;20053;-67
2022/04/02 09:47:59;;;;;;;11.13;6.43;;;4.40;99.90;;;;;;5010379;28;20116;-68
2022/04/02 09:50:29;;;;;;;11.52;6.80;;;4.50;99.90;;;;;;5005913;28;20083;-69
2022/04/02 09:53:16;;;;;;;13.65;6.35;;;4.50;99.90;;;;;;4974069;28;20073;-68
2022/04/02 09:56:09;;;;;;;10.48;6.35;;;4.60;99.90;;;;;;4998561;28;20047;-67
2022/04/02 09:58:45;;;;;;;;;;;4.60;99.90;;;;;;5002399;28;20822;-68
2022/04/02 10:01:48;;;;;;;14.60;7.25;;;4.50;99.90;;;;;;4994692;28;19925;-68
2022/04/02 10:04:33;;;;;;;10.43;5.90;;;4.80;99.90;;;;;;5294253;23;20483;-64
2022/04/02 10:07:04;;;;;;;10.15;6.47;;;5.10;99.90;;;;;;4950166;28;20094;-67
2022/04/02 10:09:34;;;;;;;10.48;6.38;;;5.40;99.90;;;;;;4952696;29;20578;-68
2022/04/02 10:12:03;;;;;;;10.20;6.18;;;5.30;99.90;;;;;;4950880;28;20086;-67
2022/04/02 10:14:33;;;;;;;9.98;6.20;;;5.60;99.90;;;;;;4954894;28;20058;-68
2022/04/02 10:17:07;;;;;;;11.95;5.80;;;5.70;99.90;;;;;;4954555;28;20057;-67
2022/04/02 10:19:38;;;;;;;13.15;6.32;;;5.50;99.90;;;;;;4955135;28;20039;-67
2022/04/02 10:22:07;;;;;;;10.02;6.25;;;5.40;99.90;;;;;;4952712;29;20055;-67
2022/04/02 10:24:56;;;;;;;13.73;6.68;;;5.40;99.90;;;;;;4955560;28;20418;-66
2022/04/02 10:27:36;;;;;;;11.30;6.30;;;5.40;99.90;;;;;;4954298;29;20045;-67
2022/04/02 10:30:11;;;;;;;8.77;6.13;;;5.20;99.90;;;;;;4949432;29;20057;-66
2022/04/02 10:32:57;;;;;;;11.27;6.60;;;4.90;99.90;;;;;;4956453;28;20069;-66
2022/04/02 10:35:26;;;;;;;9.00;6.32;;;4.90;99.90;;;;;;4948191;29;20075;-66
2022/04/02 10:38:07;;;;;;;13.75;6.30;;;4.90;99.90;;;;;;4952152;28;20082;-66
2022/04/02 10:40:46;;;;;;;11.27;7.03;;;5.20;99.90;;;;;;4949585;29;20428;-67
2022/04/02 10:43:26;;;;;;;11.48;6.85;;;5.30;99.90;;;;;;4942122;29;20043;-66
2022/04/02 10:45:53;;;;;;;10.63;6.97;;;5.30;99.90;;;;;;4944603;28;20085;-66
2022/04/02 10:48:35;;;;;;;10.80;5.80;;;5.40;99.90;;;;;;4948078;29;20039;-66
2022/04/02 10:51:02;;;;;;;10.10;6.00;;;5.30;99.90;;;;;;4948564;29;20574;-67
2022/04/02 10:53:31;;;;;;;9.65;6.45;;;5.20;99.90;;;;;;4944216;29;20424;-67
2022/04/02 10:56:03;;;;;;;8.77;5.88;;;5.30;99.90;;;;;;4945735;29;20040;-67
2022/04/02 10:58:37;;;;;;;13.13;7.07;;;5.30;99.90;;;;;;4946966;28;20071;-66
2022/04/02 11:01:07;;;;;;;13.18;7.93;;;5.30;99.90;;;;;;4942558;29;20055;-67
2022/04/02 11:03:42;;;;;;;13.68;6.70;;;5.30;99.90;;;;;;4953205;28;20051;-67
2022/04/02 11:06:11;;;;;;;9.98;5.97;;;5.20;99.90;;;;;;4956540;28;20486;-67
2022/04/02 11:08:38;;;;;;;8.15;5.45;;;5.20;99.90;;;;;;4945274;29;20462;-66
2022/04/02 11:11:21;;;;;;;10.82;5.80;;;5.40;99.90;;;;;;4952854;28;20061;-66
2022/04/02 11:14:00;;;;;;;11.60;5.88;;;5.60;99.90;;;;;;4950734;29;20070;-67
2022/04/02 11:16:40;;;;;;;8.73;5.60;;;5.90;99.90;;;;;;4941945;28;20509;-66
2022/04/02 11:22:07;;;;;;;8.27;5.40;;;5.70;99.90;;;;;;4952636;28;20158;-67
2022/04/02 11:24:49;;;;;;;7.82;5.43;;;5.50;99.90;;;;;;4953901;28;20078;-66
2022/04/02 11:27:18;;;;;;;7.78;5.53;;;5.20;99.90;;;;;;4953176;28;20115;-67
2022/04/02 11:29:50;;;;;;;9.35;5.85;;;5.20;99.90;;;;;;4947847;28;20058;-67
2022/04/02 11:32:25;;;;;;;10.68;6.22;;;5.40;99.90;;;;;;4947256;28;20070;-66
2022/04/02 11:34:53;;;;;;;8.10;5.70;;;5.40;99.90;;;;;;4941195;28;20084;-67
2022/04/02 11:37:26;;;;;;;10.88;5.70;;;5.60;99.90;;;;;;4953155;28;20442;-68
2022/04/02 11:40:01;;;;;;;9.02;5.80;;;5.60;99.90;;;;;;4952687;29;20533;-68
2022/04/02 11:42:34;;;;;;;8.60;5.50;;;5.80;99.90;;;;;;4947723;29;20070;-68
2022/04/02 11:45:08;;;;;;;9.40;5.97;;;6.00;99.90;;;;;;4960432;28;20122;-68
2022/04/02 11:47:39;;;;;;;10.50;5.72;;;5.80;99.90;;;;;;4953753;29;20074;-68
2022/04/02 11:50:08;;;;;;;10.27;5.80;;;5.80;99.90;;;;;;4952818;29;20046;-68
2022/04/02 11:53:09;;;;;;;9.05;5.65;;;5.60;99.90;;;;;;4949546;28;20060;-68
2022/04/02 11:55:39;;;;;;;9.18;5.55;;;5.50;99.90;;;;;;4964796;28;20043;-69
2022/04/02 11:58:11;;;;;;;10.60;6.10;;;5.30;99.90;;;;;;4917355;29;20055;-68
2022/04/02 12:00:40;;;;;;;;;;;5.20;99.90;;;;;;4959596;28;20043;-68
2022/04/02 12:03:24;;;;;;;9.18;6.00;;;5.20;99.90;;;;;;4959386;28;19952;-68
2022/04/02 12:05:52;;;;;;;8.73;5.47;;;5.50;99.90;;;;;;4920903;29;20569;-67
2022/04/02 12:08:26;;;;;;;10.98;5.55;;;5.70;99.90;;;;;;4953634;29;20043;-67
2022/04/02 12:10:55;;;;;;;8.80;5.13;;;5.90;99.90;;;;;;4952288;29;20080;-68
2022/04/02 12:13:23;;;;;;;9.43;5.50;;;6.00;99.90;;;;;;4936733;29;20043;-68
2022/04/02 12:16:05;;;;;;;10.10;5.65;;;6.20;99.90;;;;;;4936847;29;20097;-67
2022/04/02 12:18:50;;;;;;;9.05;5.97;;;6.10;99.90;;;;;;4948217;28;20358;-68
2022/04/02 12:21:29;;;;;;;9.45;5.68;;;6.10;99.90;;;;;;4951578;29;20043;-68
2022/04/02 12:24:03;;;;;;;10.45;6.10;;;6.10;99.90;;;;;;4952149;29;20507;-68
2022/04/02 12:26:31;;;;;;;10.05;5.65;;;6.00;99.90;;;;;;4935707;29;20043;-68
2022/04/02 12:29:00;;;;;;;9.07;5.40;;;6.10;99.90;;;;;;4942748;29;20288;-67
2022/04/02 12:31:30;;;;;;;11.77;5.95;;;6.20;99.90;;;;;;4946747;29;20051;-67
2022/04/02 12:33:59;;;;;;;9.23;5.07;;;6.20;99.90;;;;;;4944170;29;20516;-68
2022/04/02 12:36:34;;;;;;;10.32;5.50;;;6.50;99.90;;;;;;4960267;28;20055;-69
2022/04/02 12:39:05;;;;;;;8.98;5.75;;;6.70;99.90;;;;;;4959723;28;20050;-67
2022/04/02 12:41:43;;;;;;;8.95;4.90;;;6.80;99.90;;;;;;4951982;29;20047;-67
2022/04/02 12:44:11;;;;;;;7.00;4.72;;;6.90;99.90;;;;;;4943237;29;20363;-68
2022/04/02 12:46:38;;;;;;;10.00;4.88;;;7.00;99.90;;;;;;4943686;29;20054;-67
2022/04/02 12:49:06;;;;;;;8.07;4.57;;;7.20;99.90;;;;;;4952098;28;20086;-68
2022/04/02 12:51:34;;;;;;;8.52;5.32;;;7.00;99.90;;;;;;4950920;28;20510;-68
2022/04/02 12:54:03;;;;;;;7.32;5.10;;;7.00;99.90;;;;;;4949420;29;20040;-67
2022/04/02 12:56:33;;;;;;;10.45;5.22;;;7.00;99.90;;;;;;4945388;29;20113;-67
2022/04/02 12:59:18;;;;;;;9.13;4.80;;;6.90;99.90;;;;;;4947390;29;20039;-66
2022/04/02 13:01:47;;;;;;;7.53;4.38;;;7.00;99.90;;;;;;4933042;29;20071;-67
2022/04/02 13:04:24;;;;;;;7.85;4.63;;;7.20;99.90;;;;;;4949053;29;20063;-68
2022/04/02 13:06:56;;;;;;;7.63;4.82;;;7.40;99.90;;;;;;4935450;29;20150;-68
2022/04/02 13:09:35;;;;;;;10.50;4.88;;;7.40;99.90;;;;;;4946461;29;20067;-68
2022/04/02 13:12:06;;;;;;;8.10;5.20;;;7.40;99.90;;;;;;4939125;29;20063;-67
2022/04/02 13:14:33;;;;;;;7.97;4.70;;;7.10;99.90;;;;;;4955121;29;20043;-68
2022/04/02 13:17:17;;;;;;;6.93;4.35;;;7.00;99.90;;;;;;4971915;28;20043;-68
2022/04/02 13:22:52;;;;;;;9.35;4.90;;;7.00;99.90;;;;;;4956339;29;20051;-68
2022/04/02 13:25:25;;;;;;;10.52;4.93;;;6.70;99.90;;;;;;4924787;29;20058;-67
2022/04/02 13:28:17;;;;;;;7.60;5.05;;;6.60;99.90;;;;;;4924737;29;20400;-67
2022/04/02 13:30:56;;;;;;;7.68;4.53;;;6.30;99.90;;;;;;4958432;29;20051;-68